Time;durP1;ratioP1;P1;durP2;ratioP2;P2;SDS_P1;SDS_P2;PMS_P1;PMS_P2;Temp;Humidity;BMP_temperature;BMP_pressure;BME280_temperature;BME280_humidity;BME280_pressure;Samples;Min_cycle;Max_cycle;Signal;HPM_P1;HPM_P2
2021/07/07 00:01:44;;;;;;;517.15;393.27;;;;;;;;;;4908527;29;20878;-78
2021/07/07 00:04:10;;;;;;;519.35;398.35;;;;;;;;;;4907340;29;20055;-79
2021/07/07 00:06:36;;;;;;;517.95;393.58;;;;;;;;;;4910001;29;20028;-79
2021/07/07 00:09:02;;;;;;;517.30;398.25;;;;;;;;;;4913783;29;20028;-78
2021/07/07 00:11:28;;;;;;;523.65;406.48;;;;;;;;;;4925099;29;20404;-77
2021/07/07 00:13:54;;;;;;;513.40;394.40;;;;;;;;;;4911566;29;20028;-78
2021/07/07 00:16:20;;;;;;;517.08;399.05;;;;;;;;;;4904210;29;20035;-79
2021/07/07 00:18:46;;;;;;;517.03;399.33;;;;;;;;;;4911325;29;20121;-78
2021/07/07 00:21:12;;;;;;;513.92;400.75;;;;;;;;;;4910483;29;20035;-78
2021/07/07 00:23:38;;;;;;;514.53;398.15;;;;;;;;;;4907050;29;20472;-78
2021/07/07 00:26:07;;;;;;;514.47;395.80;;;;;;;;;;4913609;29;20074;-78
2021/07/07 00:28:33;;;;;;;515.85;395.98;;;;;;;;;;4931460;29;20027;-78
2021/07/07 00:30:59;;;;;;;517.55;397.48;;;;;;;;;;4928327;29;20043;-79
2021/07/07 00:33:25;;;;;;;515.47;394.20;;;;;;;;;;4928027;29;20085;-78
2021/07/07 00:35:51;;;;;;;514.75;392.02;;;;;;;;;;4926055;29;20532;-78
2021/07/07 00:38:17;;;;;;;517.33;395.42;;;;;;;;;;4926424;29;20056;-78
2021/07/07 00:40:43;;;;;;;516.78;399.08;;;;;;;;;;4914196;29;20496;-78
2021/07/07 00:43:10;;;;;;;516.40;400.30;;;;;;;;;;4926334;29;20480;-78
2021/07/07 00:45:36;;;;;;;518.70;399.80;;;;;;;;;;4910290;29;20062;-78
2021/07/07 00:48:02;;;;;;;518.15;402.42;;;;;;;;;;4908296;29;20498;-78
2021/07/07 00:50:28;;;;;;;514.25;402.15;;;;;;;;;;4912189;29;20032;-78
2021/07/07 00:52:57;;;;;;;513.42;399.98;;;;;;;;;;4911771;29;20040;-78
2021/07/07 00:55:24;;;;;;;518.70;402.20;;;;;;;;;;4930069;29;20028;-79
2021/07/07 00:57:50;;;;;;;511.05;398.02;;;;;;;;;;4908275;28;20481;-78
2021/07/07 01:00:23;;;;;;;511.15;393.60;;;;;;;;;;4930002;28;20032;-78
2021/07/07 01:02:52;;;;;;;508.98;385.08;;;;;;;;;;4942126;28;20031;-78
2021/07/07 01:05:18;;;;;;;510.52;390.98;;;;;;;;;;4929076;28;20043;-79
2021/07/07 01:07:44;;;;;;;509.27;389.80;;;;;;;;;;4940028;28;20030;-78
2021/07/07 01:10:11;;;;;;;508.98;389.55;;;;;;;;;;4927846;28;20023;-77
2021/07/07 01:12:37;;;;;;;512.90;397.50;;;;;;;;;;4920737;28;20387;-77
2021/07/07 01:15:05;;;;;;;511.70;392.73;;;;;;;;;;4928918;28;20081;-78
2021/07/07 01:17:32;;;;;;;513.35;398.92;;;;;;;;;;4923608;28;20050;-78
2021/07/07 01:20:01;;;;;;;512.47;393.63;;;;;;;;;;4941956;28;20117;-78
2021/07/07 01:22:28;;;;;;;514.20;393.13;;;;;;;;;;4926730;28;20031;-78
2021/07/07 01:24:54;;;;;;;521.53;395.80;;;;;;;;;;4927423;29;20043;-78
2021/07/07 01:27:20;;;;;;;510.70;388.95;;;;;;;;;;4924240;28;20033;-78
2021/07/07 01:29:46;;;;;;;512.58;394.90;;;;;;;;;;4942365;28;20273;-78
2021/07/07 01:32:13;;;;;;;511.35;383.15;;;;;;;;;;4943333;28;20035;-78
2021/07/07 01:34:39;;;;;;;519.90;394.48;;;;;;;;;;4922581;28;20083;-78
2021/07/07 01:37:05;;;;;;;513.38;391.38;;;;;;;;;;4943109;28;20403;-78
2021/07/07 01:39:31;;;;;;;504.98;382.20;;;;;;;;;;4926461;28;20035;-79
2021/07/07 01:41:57;;;;;;;502.63;381.58;;;;;;;;;;4936386;28;20395;-78
2021/07/07 01:44:23;;;;;;;497.83;373.92;;;;;;;;;;4927126;28;20032;-78
2021/07/07 01:46:49;;;;;;;501.10;379.88;;;;;;;;;;4926382;29;20035;-80
2021/07/07 01:49:15;;;;;;;498.25;373.77;;;;;;;;;;4945890;28;20027;-78
2021/07/07 01:51:41;;;;;;;499.02;374.80;;;;;;;;;;4937767;28;20032;-79
2021/07/07 01:54:07;;;;;;;503.80;382.70;;;;;;;;;;4941057;28;20035;-79
2021/07/07 01:56:33;;;;;;;510.48;382.05;;;;;;;;;;4930603;28;20668;-77
2021/07/07 01:58:59;;;;;;;513.75;386.23;;;;;;;;;;4927816;28;20039;-78
2021/07/07 02:01:26;;;;;;;515.15;395.63;;;;;;;;;;4928900;28;20058;-77
2021/07/07 02:03:52;;;;;;;503.13;374.40;;;;;;;;;;4925603;29;20032;-77
2021/07/07 02:06:18;;;;;;;510.00;383.75;;;;;;;;;;4932003;28;20031;-77
2021/07/07 02:08:44;;;;;;;512.78;389.17;;;;;;;;;;4943368;28;20494;-77
2021/07/07 02:11:10;;;;;;;511.08;388.15;;;;;;;;;;4927503;28;20038;-78
2021/07/07 02:13:36;;;;;;;509.77;383.67;;;;;;;;;;4943493;28;20027;-78
2021/07/07 02:16:03;;;;;;;511.17;388.45;;;;;;;;;;4923609;28;20046;-77
2021/07/07 02:18:29;;;;;;;511.40;388.17;;;;;;;;;;4928058;28;20333;-77
2021/07/07 02:20:55;;;;;;;508.48;383.80;;;;;;;;;;4925262;28;20086;-77
2021/07/07 02:23:23;;;;;;;513.22;389.98;;;;;;;;;;4944023;28;20027;-77
2021/07/07 02:25:49;;;;;;;520.55;397.13;;;;;;;;;;4931660;29;20038;-78
2021/07/07 02:28:16;;;;;;;514.17;394.05;;;;;;;;;;4932577;28;20122;-77
2021/07/07 02:30:42;;;;;;;511.10;387.70;;;;;;;;;;4946143;28;20042;-77
2021/07/07 02:33:09;;;;;;;514.20;394.00;;;;;;;;;;4945442;28;20118;-77
2021/07/07 02:35:36;;;;;;;512.30;388.33;;;;;;;;;;4927549;29;20028;-77
2021/07/07 02:38:03;;;;;;;515.75;391.67;;;;;;;;;;4949493;28;20035;-77
2021/07/07 02:40:31;;;;;;;514.17;387.45;;;;;;;;;;4927139;28;20775;-77
2021/07/07 02:42:57;;;;;;;525.47;402.58;;;;;;;;;;4930660;29;20487;-77
2021/07/07 02:45:24;;;;;;;518.63;394.38;;;;;;;;;;4948987;28;20115;-78
2021/07/07 02:47:50;;;;;;;517.72;390.67;;;;;;;;;;4944056;28;20027;-77
2021/07/07 02:50:17;;;;;;;519.83;393.00;;;;;;;;;;4929051;29;20114;-78
2021/07/07 02:52:44;;;;;;;518.80;393.80;;;;;;;;;;4943805;28;20028;-77
2021/07/07 02:55:10;;;;;;;514.45;381.75;;;;;;;;;;4948929;28;20107;-77
2021/07/07 03:00:23;;;;;;;515.80;383.27;;;;;;;;;;4948816;28;20458;-77
2021/07/07 03:02:49;;;;;;;515.55;382.58;;;;;;;;;;4948497;28;20395;-77
2021/07/07 03:05:15;;;;;;;519.35;392.20;;;;;;;;;;4927036;28;20027;-77
2021/07/07 03:07:41;;;;;;;522.65;390.55;;;;;;;;;;4947915;28;20028;-78
2021/07/07 03:10:08;;;;;;;527.20;399.88;;;;;;;;;;4946579;28;20034;-77
2021/07/07 03:12:34;;;;;;;525.25;395.80;;;;;;;;;;4944287;28;20031;-77
2021/07/07 03:15:00;;;;;;;519.33;388.63;;;;;;;;;;4949486;28;20035;-77
2021/07/07 03:17:26;;;;;;;527.60;397.23;;;;;;;;;;4929827;28;20118;-77
2021/07/07 03:19:52;;;;;;;524.95;394.75;;;;;;;;;;4949216;28;20546;-77
2021/07/07 03:22:19;;;;;;;520.67;386.70;;;;;;;;;;4927744;29;20041;-80
2021/07/07 03:24:45;;;;;;;521.75;389.38;;;;;;;;;;4942867;28;20045;-78
2021/07/07 03:27:11;;;;;;;517.50;380.15;;;;;;;;;;4946532;28;20023;-77
2021/07/07 03:29:37;;;;;;;524.35;396.55;;;;;;;;;;4946791;28;20026;-77
2021/07/07 03:32:03;;;;;;;527.53;394.08;;;;;;;;;;4944354;28;20059;-77
2021/07/07 03:34:29;;;;;;;528.40;398.48;;;;;;;;;;4931207;28;20023;-78
2021/07/07 03:36:55;;;;;;;524.28;392.40;;;;;;;;;;4941456;28;20031;-78
2021/07/07 03:39:21;;;;;;;527.50;390.10;;;;;;;;;;4946586;28;20031;-77
2021/07/07 03:41:47;;;;;;;525.90;389.15;;;;;;;;;;4925662;29;20027;-78
2021/07/07 03:44:13;;;;;;;530.55;399.58;;;;;;;;;;4944157;28;20043;-77
2021/07/07 03:46:39;;;;;;;529.25;399.67;;;;;;;;;;4931227;28;20507;-77
2021/07/07 03:49:06;;;;;;;535.25;398.85;;;;;;;;;;4931328;28;20027;-77
2021/07/07 03:51:32;;;;;;;528.70;395.55;;;;;;;;;;4925410;29;20262;-79
2021/07/07 03:53:58;;;;;;;537.28;402.90;;;;;;;;;;4945804;28;20026;-77
2021/07/07 03:56:24;;;;;;;531.65;394.70;;;;;;;;;;4946593;28;20067;-77
2021/07/07 03:58:50;;;;;;;528.92;400.52;;;;;;;;;;4921724;28;20043;-77
2021/07/07 04:01:16;;;;;;;529.53;395.98;;;;;;;;;;4929329;28;20089;-78
2021/07/07 04:03:42;;;;;;;533.15;394.63;;;;;;;;;;4929100;28;20031;-79
2021/07/07 04:06:13;;;;;;;529.42;398.23;;;;;;;;;;4932851;28;20029;-79
2021/07/07 04:08:40;;;;;;;527.90;394.10;;;;;;;;;;4936822;28;20488;-77
2021/07/07 04:11:06;;;;;;;525.25;391.90;;;;;;;;;;4943007;28;20268;-78
2021/07/07 04:13:32;;;;;;;533.15;406.40;;;;;;;;;;4947030;28;20364;-78
2021/07/07 04:15:59;;;;;;;530.95;402.92;;;;;;;;;;4942549;28;20058;-78
2021/07/07 04:18:25;;;;;;;527.45;400.95;;;;;;;;;;4929433;28;20035;-78
2021/07/07 04:20:51;;;;;;;526.67;394.67;;;;;;;;;;4926385;29;20036;-77
2021/07/07 04:23:17;;;;;;;527.72;401.30;;;;;;;;;;4926820;28;20032;-78
2021/07/07 04:25:43;;;;;;;528.97;407.05;;;;;;;;;;4925906;29;20039;-77
2021/07/07 04:28:09;;;;;;;529.05;405.67;;;;;;;;;;4948424;28;20056;-78
2021/07/07 04:30:35;;;;;;;525.17;392.42;;;;;;;;;;4927424;28;20039;-78
2021/07/07 04:33:35;;;;;;;531.00;410.75;;;;;;;;;;4941922;28;20268;-76
2021/07/07 04:36:01;;;;;;;538.13;407.25;;;;;;;;;;4938582;28;20031;-79
2021/07/07 04:38:27;;;;;;;528.63;405.55;;;;;;;;;;4924047;29;20050;-79
2021/07/07 04:40:53;;;;;;;526.83;402.40;;;;;;;;;;4938238;28;20031;-77
2021/07/07 04:43:19;;;;;;;519.92;396.63;;;;;;;;;;4925149;28;20038;-78
2021/07/07 04:45:46;;;;;;;524.10;400.48;;;;;;;;;;4927268;28;20027;-78
2021/07/07 04:48:13;;;;;;;542.78;431.05;;;;;;;;;;4924371;28;20672;-78
2021/07/07 04:50:39;;;;;;;537.35;413.25;;;;;;;;;;4942346;28;20078;-77
2021/07/07 04:53:05;;;;;;;539.83;423.77;;;;;;;;;;4927625;28;20472;-76
2021/07/07 04:55:30;;;;;;;531.85;411.15;;;;;;;;;;4929571;28;20039;-77
2021/07/07 04:57:58;;;;;;;525.25;402.83;;;;;;;;;;4932025;29;20729;-77
2021/07/07 05:00:24;;;;;;;528.08;412.38;;;;;;;;;;4942983;28;20106;-77
2021/07/07 05:02:51;;;;;;;530.00;413.38;;;;;;;;;;4944570;28;20027;-79
2021/07/07 05:05:18;;;;;;;534.33;425.95;;;;;;;;;;4944641;28;20095;-78
2021/07/07 05:07:44;;;;;;;536.97;423.98;;;;;;;;;;4947974;28;20027;-77
2021/07/07 05:10:11;;;;;;;531.40;422.67;;;;;;;;;;4928227;28;20510;-78
2021/07/07 05:12:37;;;;;;;533.45;431.05;;;;;;;;;;4939301;28;20082;-77
2021/07/07 05:15:04;;;;;;;535.42;425.00;;;;;;;;;;4944486;28;20038;-77
2021/07/07 05:17:30;;;;;;;540.05;433.48;;;;;;;;;;4942966;28;20024;-77
2021/07/07 05:19:57;;;;;;;535.00;425.17;;;;;;;;;;4924124;28;20031;-77
2021/07/07 05:22:23;;;;;;;532.33;427.08;;;;;;;;;;4926682;28;20067;-78
2021/07/07 05:24:49;;;;;;;532.33;427.38;;;;;;;;;;4927526;28;20468;-77
2021/07/07 05:27:15;;;;;;;544.05;439.08;;;;;;;;;;4942957;28;20030;-78
2021/07/07 05:29:42;;;;;;;540.38;441.23;;;;;;;;;;4946014;28;20027;-76
2021/07/07 05:32:08;;;;;;;537.10;433.45;;;;;;;;;;4944533;28;20070;-77
2021/07/07 05:34:35;;;;;;;537.35;441.75;;;;;;;;;;4938596;28;20111;-80
2021/07/07 05:37:01;;;;;;;545.17;443.42;;;;;;;;;;4936866;28;20392;-80
2021/07/07 05:39:27;;;;;;;535.60;437.92;;;;;;;;;;4921923;28;20039;-78
2021/07/07 05:41:53;;;;;;;538.67;445.70;;;;;;;;;;4922880;28;20675;-78
2021/07/07 05:44:19;;;;;;;542.08;450.70;;;;;;;;;;4944505;28;20302;-79
2021/07/07 05:46:45;;;;;;;541.80;449.38;;;;;;;;;;4926456;29;20032;-80
2021/07/07 05:49:12;;;;;;;544.13;447.33;;;;;;;;;;4949997;28;20086;-79
2021/07/07 05:51:37;;;;;;;537.25;443.55;;;;;;;;;;4937201;29;20771;-80
2021/07/07 05:54:03;;;;;;;534.72;440.70;;;;;;;;;;4937319;29;20030;-77
2021/07/07 05:56:29;;;;;;;529.33;435.52;;;;;;;;;;4936839;29;20125;-78
2021/07/07 05:59:15;;;;;;;532.80;441.27;;;;;;;;;;4944636;29;20042;-79
2021/07/07 06:01:41;;;;;;;536.85;439.67;;;;;;;;;;4945377;29;20046;-79
2021/07/07 06:04:07;;;;;;;535.70;438.75;;;;;;;;;;4936639;29;20485;-79
2021/07/07 06:06:33;;;;;;;536.50;444.25;;;;;;;;;;4934313;29;20027;-79
2021/07/07 06:08:59;;;;;;;533.97;437.88;;;;;;;;;;4935099;29;20031;-78
2021/07/07 06:11:25;;;;;;;535.85;440.05;;;;;;;;;;4941338;29;20055;-78
2021/07/07 06:13:51;;;;;;;534.10;437.77;;;;;;;;;;4933781;29;20095;-79
2021/07/07 06:16:17;;;;;;;530.95;436.35;;;;;;;;;;4926330;29;20031;-81
2021/07/07 06:18:43;;;;;;;529.30;432.67;;;;;;;;;;4938104;29;20536;-78
2021/07/07 06:21:09;;;;;;;529.83;438.17;;;;;;;;;;4931514;29;20032;-78
2021/07/07 06:23:36;;;;;;;549.88;451.95;;;;;;;;;;4931240;29;20036;-80
2021/07/07 06:26:02;;;;;;;532.40;435.65;;;;;;;;;;4931605;29;20031;-78
2021/07/07 06:28:28;;;;;;;527.65;430.23;;;;;;;;;;4947098;29;20281;-77
2021/07/07 06:31:00;;;;;;;534.00;443.40;;;;;;;;;;4952034;29;20064;-78
2021/07/07 06:33:26;;;;;;;542.30;451.52;;;;;;;;;;4929187;29;20043;-79
2021/07/07 06:35:52;;;;;;;530.03;440.80;;;;;;;;;;4942624;29;20479;-80
2021/07/07 06:38:18;;;;;;;538.58;447.10;;;;;;;;;;4930551;29;20031;-78
2021/07/07 06:40:44;;;;;;;539.67;449.63;;;;;;;;;;4950156;29;20035;-78
2021/07/07 06:43:11;;;;;;;640.53;555.50;;;;;;;;;;4926569;29;20074;-77
2021/07/07 06:45:37;;;;;;;537.25;453.35;;;;;;;;;;4928101;29;20031;-79
2021/07/07 06:48:07;;;;;;;532.47;444.73;;;;;;;;;;4948807;29;20023;-80
2021/07/07 06:50:33;;;;;;;541.90;454.02;;;;;;;;;;4926654;29;20031;-78
2021/07/07 06:52:59;;;;;;;545.78;460.33;;;;;;;;;;4948819;28;20027;-77
2021/07/07 06:55:25;;;;;;;532.22;448.13;;;;;;;;;;4926932;29;20027;-78
2021/07/07 06:57:51;;;;;;;529.88;445.02;;;;;;;;;;4952014;29;20502;-77
2021/07/07 07:00:18;;;;;;;531.53;452.52;;;;;;;;;;4952065;29;20035;-78
2021/07/07 07:02:45;;;;;;;535.13;453.20;;;;;;;;;;4950766;28;20506;-80
2021/07/07 07:05:12;;;;;;;889.78;725.17;;;;;;;;;;4934770;29;20035;-79
2021/07/07 07:07:38;;;;;;;869.00;627.42;;;;;;;;;;4929716;29;20499;-78
2021/07/07 07:10:06;;;;;;;550.85;465.95;;;;;;;;;;4946772;29;20019;-78
2021/07/07 07:12:32;;;;;;;557.22;479.65;;;;;;;;;;4941344;28;20979;-80
2021/07/07 07:14:58;;;;;;;550.25;476.67;;;;;;;;;;4930297;29;20031;-81
2021/07/07 07:17:25;;;;;;;550.10;479.67;;;;;;;;;;4954701;29;20030;-78
2021/07/07 07:19:51;;;;;;;553.13;479.52;;;;;;;;;;4929298;28;20521;-78
2021/07/07 07:22:17;;;;;;;553.35;478.00;;;;;;;;;;4937304;29;20027;-77
2021/07/07 07:24:43;;;;;;;566.13;488.95;;;;;;;;;;4953869;28;20024;-79
2021/07/07 07:27:10;;;;;;;545.55;468.52;;;;;;;;;;4937563;29;20035;-81
2021/07/07 07:29:37;;;;;;;541.88;462.67;;;;;;;;;;4936546;29;20119;-80
2021/07/07 07:32:03;;;;;;;543.17;469.48;;;;;;;;;;4952241;29;20027;-78
2021/07/07 07:34:29;;;;;;;540.85;459.42;;;;;;;;;;4925859;29;20268;-78
2021/07/07 07:37:03;;;;;;;550.53;476.55;;;;;;;;;;4951242;28;20463;-79
2021/07/07 07:42:32;;;;;;;558.83;470.85;;;;;;;;;;4952438;28;20034;-78
2021/07/07 07:44:58;;;;;;;545.15;469.20;;;;;;;;;;4944707;29;20113;-81
2021/07/07 07:47:24;;;;;;;546.88;473.17;;;;;;;;;;4930197;29;20030;-78
2021/07/07 07:49:50;;;;;;;540.47;461.23;;;;;;;;;;4936367;29;20468;-81
2021/07/07 07:52:18;;;;;;;542.75;472.10;;;;;;;;;;4934681;29;20027;-80
2021/07/07 07:54:44;;;;;;;540.00;463.67;;;;;;;;;;4934254;29;20031;-78
2021/07/07 07:57:10;;;;;;;545.72;475.75;;;;;;;;;;4937134;29;20110;-81
2021/07/07 07:59:36;;;;;;;559.85;485.77;;;;;;;;;;4953783;28;20150;-79
2021/07/07 08:02:02;;;;;;;563.75;489.83;;;;;;;;;;4953845;29;20095;-79
2021/07/07 08:04:28;;;;;;;552.33;484.98;;;;;;;;;;4951147;29;20487;-81
2021/07/07 08:06:54;;;;;;;550.08;485.35;;;;;;;;;;4955138;28;20090;-80
2021/07/07 08:09:20;;;;;;;545.83;479.80;;;;;;;;;;4932756;29;20091;-79
2021/07/07 08:11:47;;;;;;;543.00;477.63;;;;;;;;;;4930889;29;20032;-80
2021/07/07 08:14:13;;;;;;;540.00;474.25;;;;;;;;;;4938955;29;20630;-84
2021/07/07 08:16:39;;;;;;;544.67;480.45;;;;;;;;;;4932929;28;20117;-82
2021/07/07 08:19:05;;;;;;;546.60;480.50;;;;;;;;;;4952236;28;20497;-82
2021/07/07 08:21:31;;;;;;;545.17;483.27;;;;;;;;;;4931223;29;20031;-81
2021/07/07 08:23:57;;;;;;;543.70;479.40;;;;;;;;;;4932150;29;20467;-81
2021/07/07 08:26:23;;;;;;;547.05;483.55;;;;;;;;;;4950856;28;20106;-80
2021/07/07 08:28:49;;;;;;;545.22;483.85;;;;;;;;;;4945484;29;20030;-81
2021/07/07 08:31:15;;;;;;;552.03;491.40;;;;;;;;;;4942876;28;20499;-82
2021/07/07 08:33:41;;;;;;;540.90;478.77;;;;;;;;;;4930285;29;20031;-83
2021/07/07 08:36:07;;;;;;;542.03;476.90;;;;;;;;;;4934711;29;20031;-85
2021/07/07 08:38:33;;;;;;;549.53;489.33;;;;;;;;;;4946183;29;20122;-87
2021/07/07 08:40:59;;;;;;;555.63;494.98;;;;;;;;;;4928799;29;20118;-79
2021/07/07 08:43:25;;;;;;;560.70;499.58;;;;;;;;;;4933420;29;20042;-78
2021/07/07 08:45:54;;;;;;;554.85;494.27;;;;;;;;;;4921300;29;20384;-85
2021/07/07 08:48:21;;;;;;;556.47;495.60;;;;;;;;;;4929661;29;20023;-80
2021/07/07 08:50:47;;;;;;;556.03;495.08;;;;;;;;;;4944462;29;20479;-83
2021/07/07 08:53:15;;;;;;;560.83;499.95;;;;;;;;;;4934245;28;20034;-80
2021/07/07 08:55:43;;;;;;;554.72;494.13;;;;;;;;;;4950991;29;20030;-80
2021/07/07 08:58:09;;;;;;;561.33;500.55;;;;;;;;;;4934408;29;20042;-78
2021/07/07 09:00:36;;;;;;;555.80;495.65;;;;;;;;;;4954908;28;20122;-77
2021/07/07 09:03:02;;;;;;;553.10;493.20;;;;;;;;;;4954254;29;20031;-87
2021/07/07 09:05:29;;;;;;;564.92;504.60;;;;;;;;;;4932841;28;20039;-79
2021/07/07 09:07:56;;;;;;;574.55;513.65;;;;;;;;;;4929120;28;20031;-84
2021/07/07 09:10:30;;;;;;;571.47;510.42;;;;;;;;;;4943163;28;20775;-78
2021/07/07 09:12:57;;;;;;;568.78;508.40;;;;;;;;;;4928247;29;20042;-80
2021/07/07 09:15:23;;;;;;;570.80;510.42;;;;;;;;;;4933943;29;20031;-77
2021/07/07 09:17:52;;;;;;;574.83;514.45;;;;;;;;;;4950945;28;20126;-79
2021/07/07 09:20:18;;;;;;;578.60;517.97;;;;;;;;;;4945432;29;20078;-77
2021/07/07 09:22:44;;;;;;;581.85;520.90;;;;;;;;;;4928985;29;20027;-77
2021/07/07 09:25:13;;;;;;;585.38;524.63;;;;;;;;;;4947211;28;20488;-79
2021/07/07 09:27:39;;;;;;;578.00;517.88;;;;;;;;;;4928793;29;20051;-80
2021/07/07 09:30:08;;;;;;;583.17;523.08;;;;;;;;;;4932182;29;20404;-80
2021/07/07 09:32:41;;;;;;;591.10;529.25;;;;;;;;;;4924847;29;20487;-77
2021/07/07 09:35:07;;;;;;;600.22;539.83;;;;;;;;;;4947258;29;20396;-78
2021/07/07 09:37:44;;;;;;;607.90;547.58;;;;;;;;;;4950608;28;20106;-79
2021/07/07 09:40:17;;;;;;;619.72;559.05;;;;;;;;;;4933965;29;20482;-78
2021/07/07 09:42:45;;;;;;;625.20;564.28;;;;;;;;;;4931363;29;20039;-82
2021/07/07 09:45:12;;;;;;;623.50;562.47;;;;;;;;;;4951107;28;20082;-75
2021/07/07 09:47:40;;;;;;;602.47;541.95;;;;;;;;;;4950471;29;20035;-78
2021/07/07 09:50:07;;;;;;;600.75;540.03;;;;;;;;;;4934777;29;20382;-80
2021/07/07 09:52:33;;;;;;;599.25;538.28;;;;;;;;;;4934183;29;20488;-76
2021/07/07 09:55:03;;;;;;;602.92;542.00;;;;;;;;;;4935805;29;20024;-80
2021/07/07 09:57:29;;;;;;;612.80;552.13;;;;;;;;;;4937298;29;20027;-79
2021/07/07 09:59:55;;;;;;;633.17;572.13;;;;;;;;;;4935438;29;20078;-77
2021/07/07 10:02:22;;;;;;;641.03;579.47;;;;;;;;;;4937800;29;20050;-82
2021/07/07 10:04:52;;;;;;;631.88;570.88;;;;;;;;;;4937720;29;20023;-85
2021/07/07 10:07:18;;;;;;;619.92;559.08;;;;;;;;;;4953474;29;20035;-82
2021/07/07 10:09:50;;;;;;;610.72;550.40;;;;;;;;;;4934293;29;20534;-78
2021/07/07 10:12:17;;;;;;;607.10;546.38;;;;;;;;;;4943752;29;20102;-79
2021/07/07 10:14:44;;;;;;;590.63;530.13;;;;;;;;;;4950931;29;20034;-81
2021/07/07 10:17:10;;;;;;;580.72;520.50;;;;;;;;;;4923312;29;20035;-80
2021/07/07 10:19:37;;;;;;;588.88;527.67;;;;;;;;;;4931414;29;20047;-80
2021/07/07 10:22:03;;;;;;;591.20;529.47;;;;;;;;;;4929672;29;20137;-77
2021/07/07 10:24:31;;;;;;;574.92;513.97;;;;;;;;;;4949951;29;20066;-81
2021/07/07 10:26:58;;;;;;;570.35;509.38;;;;;;;;;;4933347;29;20309;-83
2021/07/07 10:29:26;;;;;;;568.25;507.50;;;;;;;;;;4939639;28;20027;-76
2021/07/07 10:31:56;;;;;;;554.38;494.10;;;;;;;;;;4927995;29;20024;-76
2021/07/07 10:34:24;;;;;;;588.42;525.63;;;;;;;;;;4935792;29;20028;-77
2021/07/07 10:36:50;;;;;;;562.13;501.30;;;;;;;;;;4926098;28;20055;-78
2021/07/07 10:39:17;;;;;;;556.15;495.58;;;;;;;;;;4945559;28;20712;-77
2021/07/07 10:44:25;;;;;;;560.50;499.98;;;;;;;;;;4945835;28;20164;-78
2021/07/07 10:46:52;;;;;;;552.72;492.23;;;;;;;;;;4926043;28;20052;-79
2021/07/07 10:49:22;;;;;;;552.42;491.92;;;;;;;;;;4951751;28;20090;-80
2021/07/07 10:51:50;;;;;;;569.67;507.58;;;;;;;;;;4935409;29;20035;-79
2021/07/07 10:54:20;;;;;;;575.88;513.10;;;;;;;;;;4920991;29;20123;-80
2021/07/07 10:56:47;;;;;;;574.25;511.58;;;;;;;;;;4933879;28;20328;-79
2021/07/07 10:59:31;;;;;;;575.58;513.22;;;;;;;;;;4949257;28;20099;-79
2021/07/07 11:02:06;;;;;;;562.13;500.13;;;;;;;;;;4955113;28;20036;-78
2021/07/07 11:04:33;;;;;;;572.15;510.15;;;;;;;;;;4949271;28;20094;-79
2021/07/07 11:07:19;;;;;;;579.97;517.72;;;;;;;;;;4944088;28;20039;-79
2021/07/07 11:09:45;;;;;;;592.63;529.95;;;;;;;;;;4932341;29;20285;-78
2021/07/07 11:12:14;;;;;;;604.35;541.15;;;;;;;;;;4927550;29;20030;-78
2021/07/07 11:14:57;;;;;;;599.47;536.90;;;;;;;;;;4936050;28;20042;-80
2021/07/07 11:17:23;;;;;;;597.10;535.17;;;;;;;;;;4941208;28;20519;-80
2021/07/07 11:19:50;;;;;;;597.22;535.42;;;;;;;;;;4935649;29;20120;-79
2021/07/07 11:22:18;;;;;;;591.50;530.03;;;;;;;;;;4933565;29;20042;-79
2021/07/07 11:24:53;;;;;;;603.20;540.88;;;;;;;;;;4934502;29;20031;-81
2021/07/07 11:27:20;;;;;;;596.05;534.10;;;;;;;;;;4943849;28;20038;-82
2021/07/07 11:29:46;;;;;;;608.50;545.08;;;;;;;;;;4930227;28;20029;-83
2021/07/07 11:32:31;;;;;;;614.65;550.78;;;;;;;;;;4945964;28;20023;-84
2021/07/07 11:35:01;;;;;;;628.20;564.33;;;;;;;;;;4932382;28;20027;-80
2021/07/07 11:37:29;;;;;;;619.25;557.03;;;;;;;;;;4930963;29;20053;-78
2021/07/07 11:40:14;;;;;;;612.65;550.60;;;;;;;;;;4946891;29;20023;-81
2021/07/07 11:42:57;;;;;;;597.33;536.03;;;;;;;;;;4932574;29;20034;-80
2021/07/07 11:45:26;;;;;;;599.78;537.78;;;;;;;;;;4947737;29;20039;-84
2021/07/07 11:47:55;;;;;;;598.03;535.70;;;;;;;;;;4952869;28;20051;-82
2021/07/07 11:50:21;;;;;;;583.33;521.80;;;;;;;;;;4926850;29;20024;-83
2021/07/07 11:53:06;;;;;;;583.08;521.13;;;;;;;;;;4935058;28;20027;-82
2021/07/07 11:55:51;;;;;;;577.15;515.50;;;;;;;;;;4948092;28;20047;-84
2021/07/07 11:58:22;;;;;;;564.13;502.75;;;;;;;;;;4949236;29;20035;-81
2021/07/07 12:00:48;;;;;;;609.63;547.03;;;;;;;;;;4956242;28;20047;-80
2021/07/07 12:03:22;;;;;;;643.50;581.22;;;;;;;;;;4939341;29;20035;-80
2021/07/07 12:05:57;;;;;;;672.35;609.95;;;;;;;;;;4955618;29;20061;-78
2021/07/07 12:08:26;;;;;;;720.58;657.15;;;;;;;;;;4944584;29;20110;-79
2021/07/07 12:10:53;;;;;;;755.70;691.42;;;;;;;;;;4950214;29;20060;-81
2021/07/07 12:13:28;;;;;;;773.22;709.08;;;;;;;;;;4938414;29;20058;-87
2021/07/07 12:16:12;;;;;;;780.67;716.60;;;;;;;;;;4938990;29;20090;-81
2021/07/07 12:18:54;;;;;;;782.92;718.75;;;;;;;;;;4939456;29;20027;-80
2021/07/07 12:21:23;;;;;;;782.15;718.03;;;;;;;;;;4939760;29;20608;-80
2021/07/07 12:23:56;;;;;;;790.40;725.65;;;;;;;;;;4956656;29;20019;-86
2021/07/07 12:26:41;;;;;;;766.38;702.65;;;;;;;;;;4956637;29;20086;-82
2021/07/07 12:29:09;;;;;;;777.38;713.25;;;;;;;;;;4939585;29;20576;-84
2021/07/07 12:31:40;;;;;;;765.70;701.78;;;;;;;;;;4939499;29;20019;-82
2021/07/07 12:34:38;;;;;;;738.75;675.75;;;;;;;;;;4956582;29;20032;-80
2021/07/07 12:37:15;;;;;;;702.92;640.28;;;;;;;;;;4956383;29;20031;-81
2021/07/07 12:39:42;;;;;;;679.35;616.90;;;;;;;;;;4928789;29;20028;-85
2021/07/07 12:42:11;;;;;;;662.33;599.85;;;;;;;;;;4931206;29;20495;-80
2021/07/07 12:45:17;;;;;;;640.72;578.65;;;;;;;;;;4934526;29;20031;-79
2021/07/07 12:47:46;;;;;;;627.85;565.67;;;;;;;;;;4893320;29;20460;-80
2021/07/07 12:50:19;;;;;;;647.22;584.70;;;;;;;;;;4915264;29;20476;-85
2021/07/07 12:52:46;;;;;;;693.85;630.42;;;;;;;;;;4911380;29;20037;-85
2021/07/07 12:55:30;;;;;;;721.90;658.28;;;;;;;;;;4953089;29;20026;-88
2021/07/07 12:58:01;;;;;;;753.60;688.30;;;;;;;;;;4937649;29;20555;-83
2021/07/07 13:00:53;;;;;;;767.67;703.72;;;;;;;;;;4953378;29;21544;-83
2021/07/07 13:03:20;;;;;;;741.20;678.20;;;;;;;;;;4951154;29;20518;-82
2021/07/07 13:06:22;;;;;;;729.13;666.00;;;;;;;;;;4938513;29;20033;-83
2021/07/07 13:08:49;;;;;;;692.17;629.75;;;;;;;;;;4947166;28;20036;-85
2021/07/07 13:11:17;;;;;;;679.20;616.60;;;;;;;;;;4939036;29;20146;-79
2021/07/07 13:13:43;;;;;;;667.53;604.28;;;;;;;;;;4934069;29;20059;-83
2021/07/07 13:16:09;;;;;;;651.65;589.00;;;;;;;;;;4935387;29;20024;-81
2021/07/07 13:18:58;;;;;;;635.40;573.22;;;;;;;;;;4938096;29;20423;-83
2021/07/07 13:24:34;;;;;;;638.45;576.80;;;;;;;;;;4932289;29;20038;-82
2021/07/07 13:27:07;;;;;;;666.22;603.78;;;;;;;;;;4932052;29;20027;-80
2021/07/07 13:32:37;;;;;;;665.28;598.22;;;;;;;;;;4944739;29;20046;-80
2021/07/07 13:35:06;;;;;;;646.80;585.25;;;;;;;;;;4956209;28;20031;-81
2021/07/07 13:37:33;;;;;;;665.67;602.72;;;;;;;;;;4943231;29;20023;-84
2021/07/07 13:40:01;;;;;;;665.17;603.17;;;;;;;;;;4935857;29;20038;-83
2021/07/07 13:42:58;;;;;;;668.78;607.13;;;;;;;;;;4928580;29;20035;-86
2021/07/07 13:45:24;;;;;;;662.90;601.45;;;;;;;;;;4936264;29;20027;-82
2021/07/07 13:47:50;;;;;;;667.53;605.83;;;;;;;;;;4954227;28;20058;-80
2021/07/07 13:50:17;;;;;;;647.28;586.33;;;;;;;;;;4936933;29;20023;-81
2021/07/07 13:52:43;;;;;;;648.88;587.40;;;;;;;;;;4945850;29;20031;-82
2021/07/07 13:55:12;;;;;;;649.92;588.60;;;;;;;;;;4936979;29;20034;-84
2021/07/07 13:57:38;;;;;;;652.08;590.30;;;;;;;;;;4953000;28;20027;-86
2021/07/07 14:00:05;;;;;;;645.08;583.95;;;;;;;;;;4934003;29;20036;-82
2021/07/07 14:02:31;;;;;;;637.47;576.35;;;;;;;;;;4952421;29;20408;-83
2021/07/07 14:04:57;;;;;;;630.50;569.63;;;;;;;;;;4929838;29;20023;-83
2021/07/07 14:07:23;;;;;;;621.25;560.35;;;;;;;;;;4954445;29;20027;-82
2021/07/07 14:09:49;;;;;;;621.10;559.88;;;;;;;;;;4933817;29;20031;-79
2021/07/07 14:12:16;;;;;;;621.05;559.72;;;;;;;;;;4942097;29;20015;-82